Time;durP1;ratioP1;P1;durP2;ratioP2;P2;SDS_P1;SDS_P2;PMS_P1;PMS_P2;Temp;Humidity;BMP_temperature;BMP_pressure;BME280_temperature;BME280_humidity;BME280_pressure;Samples;Min_cycle;Max_cycle;Signal;HPM_P1;HPM_P2
2022/02/02 00:01:17;;;;;;;;;;;19.70;99.90;;;;;;5093622;28;19970;-82
2022/02/02 00:03:45;;;;;;;;;;;19.70;99.90;;;;;;5093507;28;19908;-81
2022/02/02 00:06:29;;;;;;;;;;;19.60;99.90;;;;;;5093347;28;19908;-84
2022/02/02 00:09:02;;;;;;;;;;;19.70;99.90;;;;;;5093409;28;19915;-81
2022/02/02 00:14:20;;;;;;;;;;;19.70;99.90;;;;;;5093027;28;20507;-80
2022/02/02 00:16:51;;;;;;;;;;;19.70;99.90;;;;;;5093258;28;20324;-81
2022/02/02 00:19:39;;;;;;;;;;;19.70;99.90;;;;;;5093153;28;19934;-80
2022/02/02 00:22:17;;;;;;;;;;;19.80;99.90;;;;;;5092776;28;19961;-80
2022/02/02 00:27:16;;;;;;;;;;;20.00;99.90;;;;;;5093344;28;19974;-81
2022/02/02 00:29:48;;;;;;;;;;;19.90;99.90;;;;;;5094152;28;19915;-80
2022/02/02 00:34:42;;;;;;;;;;;19.80;99.90;;;;;;5093290;28;19908;-80
2022/02/02 00:37:09;;;;;;;;;;;19.80;99.90;;;;;;5093118;28;19908;-80
2022/02/02 00:39:36;;;;;;;;;;;19.80;99.90;;;;;;5093030;28;19914;-81
2022/02/02 00:42:03;;;;;;;;;;;19.80;99.90;;;;;;5093046;28;19916;-79
2022/02/02 00:44:30;;;;;;;;;;;19.70;99.90;;;;;;5092837;28;20320;-80
2022/02/02 00:46:57;;;;;;;;;;;19.70;99.90;;;;;;5092876;28;20346;-81
2022/02/02 00:49:23;;;;;;;;;;;19.70;99.90;;;;;;5092868;28;19991;-80
2022/02/02 00:51:55;;;;;;;;;;;19.70;99.90;;;;;;5092654;28;19954;-81
2022/02/02 00:54:23;;;;;;;;;;;19.60;99.90;;;;;;5092637;28;19954;-83
2022/02/02 00:56:51;;;;;;;;;;;19.60;99.90;;;;;;5092622;28;19909;-80
2022/02/02 00:59:18;;;;;;;;;;;19.50;99.90;;;;;;5092512;28;19919;-82
2022/02/02 01:01:45;;;;;;;;;;;19.50;99.90;;;;;;5091077;28;20429;-82
2022/02/02 01:04:12;;;;;;;;;;;19.50;99.90;;;;;;5092465;28;19909;-83
2022/02/02 01:06:44;;;;;;;;;;;19.50;99.90;;;;;;5092661;28;19908;-83
2022/02/02 01:09:23;;;;;;;;;;;19.40;99.90;;;;;;5092685;28;20001;-83
2022/02/02 01:20:00;;;;;;;;;;;19.70;99.90;;;;;;5092385;28;20316;-81
2022/02/02 01:27:58;;;;;;;;;;;19.50;99.90;;;;;;5092277;28;19981;-85
2022/02/02 01:30:25;;;;;;;;;;;19.50;99.90;;;;;;5092529;28;19912;-83
2022/02/02 01:32:52;;;;;;;;;;;19.50;99.90;;;;;;5092676;28;19908;-85
2022/02/02 01:35:19;;;;;;;;;;;19.50;99.90;;;;;;5092588;28;20283;-84
2022/02/02 01:37:47;;;;;;;;;;;19.60;99.90;;;;;;5092440;28;20266;-80
2022/02/02 01:40:21;;;;;;;;;;;19.60;99.90;;;;;;5093134;28;19919;-80
2022/02/02 01:43:00;;;;;;;;;;;19.60;99.90;;;;;;5093002;28;19912;-83
2022/02/02 01:45:37;;;;;;;;;;;19.60;99.90;;;;;;5093340;28;19950;-81
2022/02/02 01:48:24;;;;;;;;;;;19.60;99.90;;;;;;5096323;28;20362;-77
2022/02/02 01:51:15;;;;;;;;;;;19.70;99.90;;;;;;5098365;28;19908;-79
2022/02/02 01:54:17;;;;;;;;;;;19.70;99.90;;;;;;5095728;28;19916;-77
2022/02/02 01:56:29;;;;;;;;;;;19.70;99.90;;;;;;5101238;28;19929;-82
2022/02/02 02:01:51;;;;;;;;;;;19.80;99.90;;;;;;5105355;28;20358;-80
2022/02/02 02:04:18;;;;;;;;;;;19.80;99.90;;;;;;5110378;28;19908;-80
2022/02/02 02:06:45;;;;;;;;;;;19.80;99.90;;;;;;5108620;28;19950;-79
2022/02/02 02:09:12;;;;;;;;;;;19.90;99.90;;;;;;5110652;28;19930;-81
2022/02/02 02:11:43;;;;;;;;;;;19.90;99.90;;;;;;5099060;28;20381;-77
2022/02/02 02:16:36;;;;;;;;;;;19.80;99.90;;;;;;5093082;28;19908;-77
2022/02/02 02:19:03;;;;;;;;;;;19.80;99.90;;;;;;5093382;28;19915;-79
2022/02/02 02:21:30;;;;;;;;;;;19.80;99.90;;;;;;5096703;28;19920;-77
2022/02/02 02:23:59;;;;;;;;;;;19.90;99.90;;;;;;5096018;28;19969;-78
2022/02/02 02:26:28;;;;;;;;;;;19.90;99.90;;;;;;5096114;28;19931;-77
2022/02/02 02:29:19;;;;;;;;;;;19.90;99.90;;;;;;5097419;28;19908;-76
2022/02/02 02:55:57;;;;;;;;;;;20.30;99.90;;;;;;5094795;28;19916;-81
2022/02/02 03:01:14;;;;;;;;;;;20.40;99.90;;;;;;5095353;28;20287;-79
2022/02/02 03:31:26;;;;;;;;;;;20.90;99.90;;;;;;5094238;28;19999;-77
2022/02/02 04:00:44;;;;;;;;;;;20.90;99.90;;;;;;5096282;28;19931;-76
2022/02/02 04:06:04;;;;;;;;;;;20.70;99.90;;;;;;5095001;28;19916;-81
2022/02/02 04:08:34;;;;;;;;;;;20.60;99.90;;;;;;5092910;28;19959;-79
2022/02/02 04:11:05;;;;;;;;;;;20.70;99.90;;;;;;5092570;28;19908;-77
2022/02/02 04:54:38;;;;;;;;;;;19.80;99.90;;;;;;5093490;28;19908;-76
2022/02/02 05:00:44;;;;;;;;;;;19.90;99.90;;;;;;5092629;28;19969;-77
2022/02/02 05:06:15;;;;;;;;;;;19.80;99.90;;;;;;5095426;28;19915;-77
2022/02/02 05:11:07;;;;;;;;;;;19.80;99.90;;;;;;5094030;28;19908;-78
2022/02/02 05:49:12;;;;;;;;;;;19.40;99.90;;;;;;5033316;28;19909;-83
2022/02/02 05:51:49;;;;;;;;;;;19.30;99.90;;;;;;5031357;28;19944;-82
2022/02/02 05:54:18;;;;;;;;;;;19.20;99.90;;;;;;5043314;28;19994;-83
2022/02/02 05:56:49;;;;;;;;;;;19.20;99.90;;;;;;5096680;28;19908;-85
2022/02/02 05:59:20;;;;;;;;;;;19.10;99.90;;;;;;5097713;28;19920;-85
2022/02/02 06:01:51;;;;;;;;;;;19.10;99.90;;;;;;5097107;28;20354;-82
2022/02/02 06:04:25;;;;;;;;;;;19.00;99.90;;;;;;5096939;28;19931;-85
2022/02/02 06:06:54;;;;;;;;;;;19.00;99.90;;;;;;5097737;28;19914;-86
2022/02/02 06:09:23;;;;;;;;;;;19.00;99.90;;;;;;5097719;28;20946;-87
2022/02/02 06:11:51;;;;;;;;;;;19.10;99.90;;;;;;5096660;28;19912;-85
2022/02/02 06:14:37;;;;;;;;;;;19.10;99.90;;;;;;5096285;28;19912;-85
2022/02/02 06:17:07;;;;;;;;;;;19.10;99.90;;;;;;5095210;28;19935;-83
2022/02/02 06:19:34;;;;;;;;;;;19.20;99.90;;;;;;5096869;28;20251;-85
2022/02/02 06:22:12;;;;;;;;;;;19.20;99.90;;;;;;5096623;28;19927;-82
2022/02/02 06:24:50;;;;;;;;;;;19.10;99.90;;;;;;5096688;28;19916;-84
2022/02/02 06:27:25;;;;;;;;;;;19.00;99.90;;;;;;5096849;28;19908;-78
2022/02/02 06:30:04;;;;;;;;;;;19.00;99.90;;;;;;5093887;28;20300;-81
2022/02/02 06:32:37;;;;;;;;;;;19.00;99.90;;;;;;5091659;28;19915;-85
2022/02/02 06:35:05;;;;;;;;;;;19.00;99.90;;;;;;5094554;28;19976;-81
2022/02/02 06:37:32;;;;;;;;;;;19.00;99.90;;;;;;5093210;28;19957;-82
2022/02/02 06:39:59;;;;;;;;;;;19.10;99.90;;;;;;5093756;28;19985;-79
2022/02/02 06:42:25;;;;;;;;;;;19.10;99.90;;;;;;5093577;28;20355;-82
2022/02/02 06:44:53;;;;;;;;;;;19.10;99.90;;;;;;5093381;28;19973;-83
2022/02/02 06:47:19;;;;;;;;;;;19.10;99.90;;;;;;5093029;28;19916;-79
2022/02/02 06:49:49;;;;;;;;;;;19.10;99.90;;;;;;5093198;28;19908;-79
2022/02/02 06:52:23;;;;;;;;;;;19.10;99.90;;;;;;5093054;28;19912;-78
2022/02/02 06:55:01;;;;;;;;;;;19.10;99.90;;;;;;5093453;28;19927;-80
2022/02/02 06:57:44;;;;;;;;;;;19.10;99.90;;;;;;5093043;28;19920;-79
2022/02/02 07:00:34;;;;;;;;;;;19.00;99.90;;;;;;5092974;28;19920;-80
2022/02/02 07:03:17;;;;;;;;;;;19.00;99.90;;;;;;5092842;28;19916;-81
2022/02/02 07:06:25;;;;;;;;;;;19.00;99.90;;;;;;5092274;28;19912;-79
2022/02/02 07:08:57;;;;;;;;;;;19.00;99.90;;;;;;5090872;28;20012;-78
2022/02/02 07:11:40;;;;;;;;;;;19.00;99.90;;;;;;5093131;28;19908;-81
2022/02/02 07:14:22;;;;;;;;;;;19.00;99.90;;;;;;5092623;28;19912;-79
2022/02/02 07:19:36;;;;;;;;;;;19.00;99.90;;;;;;5092467;28;19912;-78
2022/02/02 07:22:42;;;;;;;;;;;18.90;99.90;;;;;;5092304;28;19916;-82
2022/02/02 07:28:44;;;;;;;;;;;18.90;99.90;;;;;;5010971;28;19921;-77
2022/02/02 07:33:56;;;;;;;;;;;18.90;99.90;;;;;;5090214;28;19912;-77
2022/02/02 07:36:32;;;;;;;;;;;19.00;99.90;;;;;;5089963;28;19932;-78
2022/02/02 07:39:07;;;;;;;;;;;19.00;99.90;;;;;;5089725;28;19912;-77
2022/02/02 07:41:37;;;;;;;;;;;19.00;99.90;;;;;;5089872;28;19923;-78
2022/02/02 07:44:13;;;;;;;;;;;18.90;99.90;;;;;;5089781;28;19908;-77
2022/02/02 07:46:44;;;;;;;;;;;18.80;99.90;;;;;;5089442;28;19922;-77
2022/02/02 07:49:11;;;;;;;;;;;18.80;99.90;;;;;;5089692;28;20461;-77
2022/02/02 07:51:38;;;;;;;;;;;18.80;99.90;;;;;;5088924;28;19912;-77
2022/02/02 07:54:19;;;;;;;;;;;18.80;99.90;;;;;;5094235;28;19936;-84
2022/02/02 07:56:47;;;;;;;;;;;18.80;99.90;;;;;;5094639;28;19989;-79
2022/02/02 08:01:44;;;;;;;;;;;18.80;99.90;;;;;;5093030;28;19961;-79
2022/02/02 08:04:12;;;;;;;;;;;18.80;99.90;;;;;;5091712;28;19919;-77
2022/02/02 08:06:41;;;;;;;;;;;18.70;99.90;;;;;;5093175;28;20007;-78
2022/02/02 08:09:12;;;;;;;;;;;18.70;99.90;;;;;;5093773;28;20341;-77
2022/02/02 08:11:39;;;;;;;;;;;18.70;99.90;;;;;;5094201;28;20362;-79
2022/02/02 08:14:06;;;;;;;;;;;18.70;99.90;;;;;;5093394;28;19908;-77
2022/02/02 08:16:36;;;;;;;;;;;18.60;99.90;;;;;;5093015;28;19915;-76
2022/02/02 08:19:04;;;;;;;;;;;18.50;99.90;;;;;;5093658;28;19909;-78
2022/02/02 08:21:30;;;;;;;;;;;18.60;99.90;;;;;;5093996;28;19922;-78
2022/02/02 08:23:57;;;;;;;;;;;18.60;99.90;;;;;;5093595;28;19999;-77
2022/02/02 08:26:24;;;;;;;;;;;18.70;99.90;;;;;;5093595;28;19908;-79
2022/02/02 08:28:52;;;;;;;;;;;18.70;99.90;;;;;;5093061;28;20243;-76
2022/02/02 08:31:21;;;;;;;;;;;18.60;99.90;;;;;;5093125;28;19958;-77
2022/02/02 08:33:49;;;;;;;;;;;18.60;99.90;;;;;;5092948;28;19969;-76
2022/02/02 08:36:18;;;;;;;;;;;18.50;99.90;;;;;;5092548;28;19912;-77
2022/02/02 08:41:44;;;;;;;;;;;18.50;99.90;;;;;;5093057;28;20307;-77
2022/02/02 08:44:18;;;;;;;;;;;18.60;99.90;;;;;;5092514;28;20319;-78
2022/02/02 08:46:48;;;;;;;;;;;18.60;99.90;;;;;;5122894;27;19912;-78
2022/02/02 08:49:16;;;;;;;;;;;18.70;99.90;;;;;;5093094;28;19912;-76
2022/02/02 08:51:46;;;;;;;;;;;18.70;99.90;;;;;;5092730;28;19908;-77
2022/02/02 08:54:28;;;;;;;;;;;18.70;99.90;;;;;;5094418;28;19910;-81
2022/02/02 09:02:07;;;;;;;;;;;18.80;99.90;;;;;;5094094;28;19916;-77
2022/02/02 09:07:18;;;;;;;;;;;18.90;99.90;;;;;;5093734;28;19962;-79
2022/02/02 09:10:08;;;;;;;;;;;18.80;99.90;;;;;;5094242;28;19930;-80
2022/02/02 09:23:31;;;;;;;;;;;19.10;99.90;;;;;;5093036;28;19912;-77
2022/02/02 09:34:06;;;;;;;;;;;19.10;99.90;;;;;;5096881;28;19908;-76
2022/02/02 09:36:36;;;;;;;;;;;19.10;99.90;;;;;;5097470;28;19908;-77
2022/02/02 09:39:30;;;;;;;;;;;19.10;99.90;;;;;;5098641;28;19908;-80
2022/02/02 09:42:12;;;;;;;;;;;19.10;99.90;;;;;;5096621;28;19916;-76
2022/02/02 09:44:41;;;;;;;;;;;19.10;99.90;;;;;;5096534;28;19908;-76
2022/02/02 09:52:19;;;;;;;;;;;19.10;99.90;;;;;;5096265;28;19953;-76
2022/02/02 09:57:44;;;;;;;;;;;19.10;99.90;;;;;;5095974;28;19908;-76
2022/02/02 10:08:10;;;;;;;;;;;19.10;99.90;;;;;;5095908;28;19912;-76
2022/02/02 10:11:07;;;;;;;;;;;19.10;99.90;;;;;;5096230;28;19909;-77
2022/02/02 10:15:54;;;;;;;;;;;19.10;99.90;;;;;;5095801;28;19973;-79
2022/02/02 10:18:33;;;;;;;;;;;19.20;99.90;;;;;;5095773;28;19952;-79
2022/02/02 10:21:00;;;;;;;;;;;19.20;99.90;;;;;;5095613;28;19973;-78
2022/02/02 10:23:28;;;;;;;;;;;19.20;99.90;;;;;;5095715;28;20003;-77
2022/02/02 10:25:59;;;;;;;;;;;19.20;99.90;;;;;;5096014;28;19992;-78
2022/02/02 10:28:29;;;;;;;;;;;19.20;99.90;;;;;;5096284;28;19908;-77
2022/02/02 10:31:05;;;;;;;;;;;19.20;99.90;;;;;;5096128;28;19915;-78
2022/02/02 10:33:32;;;;;;;;;;;19.30;99.90;;;;;;5095910;28;19908;-81
2022/02/02 10:36:08;;;;;;;;;;;19.20;99.90;;;;;;5095659;28;19915;-79
2022/02/02 10:38:50;;;;;;;;;;;19.30;99.90;;;;;;5095230;28;20412;-78
2022/02/02 10:41:31;;;;;;;;;;;19.30;99.90;;;;;;5094553;28;20371;-81
2022/02/02 10:44:01;;;;;;;;;;;19.40;99.90;;;;;;5094732;28;20007;-77
2022/02/02 10:46:42;;;;;;;;;;;19.40;99.90;;;;;;5095370;28;19908;-78
2022/02/02 10:49:18;;;;;;;;;;;19.40;99.90;;;;;;5095441;28;19908;-77
2022/02/02 10:51:53;;;;;;;;;;;19.50;99.90;;;;;;5095867;28;20386;-77
2022/02/02 10:54:39;;;;;;;;;;;19.50;99.90;;;;;;5096218;28;19912;-79
2022/02/02 10:57:16;;;;;;;;;;;19.50;99.90;;;;;;5076193;28;19908;-78
2022/02/02 11:08:02;;;;;;;;;;;19.50;99.90;;;;;;5075414;28;19961;-77
2022/02/02 11:10:30;;;;;;;;;;;19.50;99.90;;;;;;5074417;28;19909;-78
2022/02/02 11:13:00;;;;;;;;;;;19.50;99.90;;;;;;5074152;28;20267;-80
2022/02/02 11:15:56;;;;;;;;;;;19.50;99.90;;;;;;5074372;28;19954;-76
2022/02/02 11:18:35;;;;;;;;;;;19.60;99.90;;;;;;5069704;28;19916;-77
2022/02/02 11:21:09;;;;;;;;;;;19.50;99.90;;;;;;5074220;28;19922;-77
2022/02/02 11:23:54;;;;;;;;;;;19.50;99.90;;;;;;5074426;28;20286;-78
2022/02/02 11:26:38;;;;;;;;;;;19.50;99.90;;;;;;5074331;28;20410;-78
2022/02/02 11:29:05;;;;;;;;;;;19.50;99.90;;;;;;5073587;28;20042;-76
2022/02/02 11:31:32;;;;;;;;;;;19.40;99.90;;;;;;5074167;28;19908;-77
2022/02/02 11:34:00;;;;;;;;;;;19.40;99.90;;;;;;5074016;28;19909;-78
2022/02/02 11:36:31;;;;;;;;;;;19.40;99.90;;;;;;5074107;28;19910;-77
2022/02/02 11:39:01;;;;;;;;;;;19.50;99.90;;;;;;5074105;28;19912;-76
2022/02/02 11:41:52;;;;;;;;;;;19.60;99.90;;;;;;5073619;28;19917;-77
2022/02/02 11:44:27;;;;;;;;;;;19.60;99.90;;;;;;5073971;28;20381;-77
2022/02/02 11:49:50;;;;;;;;;;;19.60;99.90;;;;;;5076143;28;19909;-83
2022/02/02 11:52:35;;;;;;;;;;;19.60;99.90;;;;;;5074372;28;20271;-77
2022/02/02 11:55:03;;;;;;;;;;;19.60;99.90;;;;;;5074420;28;19908;-75
2022/02/02 11:57:35;;;;;;;;;;;19.60;99.90;;;;;;5073826;28;19912;-75
2022/02/02 12:03:16;;;;;;;;;;;19.60;99.90;;;;;;5074232;28;20367;-78
2022/02/02 12:35:53;;;;;;;;;;;19.70;99.90;;;;;;5051587;28;20036;-75
2022/02/02 12:53:37;;;;;;;;;;;19.60;99.90;;;;;;5074851;28;20062;-76
2022/02/02 12:58:21;;;;;;;;;;;19.70;99.90;;;;;;5072506;28;19915;-83
2022/02/02 13:01:07;;;;;;;;;;;19.70;99.90;;;;;;5074397;28;19943;-78
2022/02/02 13:03:34;;;;;;;;;;;19.60;99.90;;;;;;5074421;28;19958;-82
2022/02/02 13:06:01;;;;;;;;;;;19.70;99.90;;;;;;5073214;28;19916;-83
2022/02/02 13:08:28;;;;;;;;;;;19.70;99.90;;;;;;5073535;28;19908;-79
2022/02/02 13:11:04;;;;;;;;;;;19.70;99.90;;;;;;5075166;28;20278;-82
2022/02/02 13:13:31;;;;;;;;;;;19.70;99.90;;;;;;5075107;28;20264;-82
2022/02/02 13:16:12;;;;;;;;;;;19.60;99.90;;;;;;5106112;28;19916;-82
2022/02/02 13:24:02;;;;;;;;;;;19.50;99.90;;;;;;5073041;28;20320;-80
2022/02/02 13:32:00;;;;;;;;;;;19.50;99.90;;;;;;5073741;28;19908;-82
2022/02/02 13:37:32;;;;;;;;;;;19.40;99.90;;;;;;5072253;28;19934;-82
2022/02/02 13:45:40;;;;;;;;;;;19.30;99.90;;;;;;5073878;28;19915;-83
2022/02/02 13:48:31;;;;;;;;;;;19.30;99.90;;;;;;5072826;28;19909;-83
2022/02/02 13:56:59;;;;;;;;;;;19.30;99.90;;;;;;5072231;28;19915;-82
2022/02/02 14:04:18;;;;;;;;;;;19.20;99.90;;;;;;5071815;28;20147;-82
2022/02/02 14:33:23;;;;;;;;;;;19.20;99.90;;;;;;5077055;28;20049;-81
2022/02/02 14:35:53;;;;;;;;;;;19.20;99.90;;;;;;5075818;28;19916;-83
2022/02/02 14:38:20;;;;;;;;;;;19.30;99.90;;;;;;5075766;28;20281;-82
2022/02/02 14:43:22;;;;;;;;;;;19.20;99.90;;;;;;5075189;28;19915;-82
2022/02/02 14:45:54;;;;;;;;;;;19.20;99.90;;;;;;5075061;28;19916;-81
2022/02/02 14:48:35;;;;;;;;;;;19.20;99.90;;;;;;5075155;28;19914;-83
2022/02/02 14:53:41;;;;;;;;;;;19.10;99.90;;;;;;5075547;28;19915;-82
2022/02/02 15:29:14;;;;;;;;;;;18.90;99.90;;;;;;5074560;28;20345;-83
2022/02/02 15:31:42;;;;;;;;;;;18.70;99.90;;;;;;5074437;28;19924;-81
2022/02/02 15:34:14;;;;;;;;;;;18.50;99.90;;;;;;5074068;28;20276;-82
2022/02/02 15:39:16;;;;;;;;;;;18.40;99.90;;;;;;5074345;28;19934;-79
2022/02/02 15:58:19;;;;;;;;;;;18.30;99.90;;;;;;5073932;28;19909;-80
2022/02/02 16:01:40;;;;;;;;;;;18.30;99.90;;;;;;5073700;28;19916;-79
2022/02/02 16:03:45;;;;;;;;;;;18.40;99.90;;;;;;5073735;28;20050;-81
2022/02/02 16:06:21;;;;;;;;;;;18.40;99.90;;;;;;5073577;28;19932;-82
2022/02/02 16:08:56;;;;;;;;;;;18.40;99.90;;;;;;5073569;28;19908;-80
2022/02/02 16:11:29;;;;;;;;;;;18.50;99.90;;;;;;5073475;28;20363;-81
2022/02/02 16:14:01;;;;;;;;;;;18.40;99.90;;;;;;5073471;28;19915;-82
2022/02/02 16:19:15;;;;;;;;;;;18.50;99.90;;;;;;5073787;28;20337;-81
2022/02/02 16:25:01;;;;;;;;;;;18.70;99.90;;;;;;5073977;28;20336;-81
2022/02/02 16:33:58;;;;;;;;;;;18.80;99.90;;;;;;5078512;28;20382;-83
2022/02/02 16:36:07;;;;;;;;;;;18.80;99.90;;;;;;5075079;28;19916;-81
2022/02/02 16:38:35;;;;;;;;;;;18.80;99.90;;;;;;5072253;28;19909;-81
2022/02/02 16:41:09;;;;;;;;;;;18.70;99.90;;;;;;5072999;28;19924;-82
2022/02/02 16:43:36;;;;;;;;;;;18.70;99.90;;;;;;5072918;28;20377;-82
2022/02/02 16:46:03;;;;;;;;;;;18.70;99.90;;;;;;5072599;28;19908;-82
2022/02/02 16:48:29;;;;;;;;;;;18.70;99.90;;;;;;5072719;28;19912;-81
2022/02/02 16:50:58;;;;;;;;;;;18.70;99.90;;;;;;5072808;28;19908;-81
2022/02/02 16:53:33;;;;;;;;;;;18.80;99.90;;;;;;5072736;28;19908;-82
2022/02/02 16:56:10;;;;;;;;;;;18.80;99.90;;;;;;5104987;28;19993;-82
2022/02/02 17:31:06;;;;;;;;;;;18.50;99.90;;;;;;5072504;28;19950;-82
2022/02/02 17:33:41;;;;;;;;;;;18.50;99.90;;;;;;5072121;28;19908;-80
2022/02/02 18:16:18;;;;;;;;;;;18.30;99.90;;;;;;5075831;28;19947;-79
2022/02/02 18:20:57;;;;;;;;;;;18.20;99.90;;;;;;5075428;28;20019;-81
2022/02/02 18:23:34;;;;;;;;;;;18.20;99.90;;;;;;5108319;28;20004;-81
2022/02/02 18:26:53;;;;;;;;;;;18.20;99.90;;;;;;5075209;28;19912;-81
2022/02/02 18:29:10;;;;;;;;;;;18.20;99.90;;;;;;5071397;28;19943;-81
2022/02/02 18:34:19;;;;;;;;;;;18.20;99.90;;;;;;5074937;28;19972;-80
2022/02/02 18:50:46;;;;;;;;;;;18.20;99.90;;;;;;5075839;28;19909;-79
2022/02/02 18:55:27;;;;;;;;;;;18.20;99.90;;;;;;5075251;28;19912;-81
2022/02/02 18:58:25;;;;;;;;;;;18.20;99.90;;;;;;5074856;28;20279;-81
2022/02/02 19:01:38;;;;;;;;;;;18.20;99.90;;;;;;5073977;28;19927;-80
2022/02/02 19:31:30;;;;;;;;;;;18.20;99.90;;;;;;5074326;28;19915;-81
2022/02/02 19:53:56;;;;;;;;;;;18.20;99.90;;;;;;5074521;28;19934;-80
2022/02/02 19:56:10;;;;;;;;;;;18.20;99.90;;;;;;5073785;28;19954;-80
2022/02/02 20:11:31;;;;;;;;;;;18.30;99.90;;;;;;5073576;28;19908;-82
2022/02/02 20:13:58;;;;;;;;;;;18.40;99.90;;;;;;5073331;28;19958;-80
2022/02/02 20:16:25;;;;;;;;;;;18.30;99.90;;;;;;5073645;28;20321;-81
2022/02/02 20:18:55;;;;;;;;;;;18.30;99.90;;;;;;5073396;28;19908;-79
2022/02/02 20:21:24;;;;;;;;;;;18.40;99.90;;;;;;5073224;28;19991;-79
2022/02/02 20:23:51;;;;;;;;;;;18.40;99.90;;;;;;5072912;28;19913;-80
2022/02/02 20:26:22;;;;;;;;;;;18.40;99.90;;;;;;5073240;28;19930;-78
2022/02/02 20:28:48;;;;;;;;;;;18.40;99.90;;;;;;5073195;28;19912;-81
2022/02/02 20:31:16;;;;;;;;;;;18.40;99.90;;;;;;5073073;28;20398;-81
2022/02/02 20:33:43;;;;;;;;;;;18.40;99.90;;;;;;5072764;28;19932;-82
2022/02/02 20:36:10;;;;;;;;;;;18.40;99.90;;;;;;5072808;28;20072;-81
2022/02/02 20:38:37;;;;;;;;;;;18.40;99.90;;;;;;5073384;28;20340;-82
2022/02/02 20:41:04;;;;;;;;;;;18.50;99.90;;;;;;5105677;28;19920;-82
2022/02/02 20:43:45;;;;;;;;;;;18.50;99.90;;;;;;5073442;28;19959;-80
2022/02/02 21:05:26;;;;;;;;;;;18.80;99.90;;;;;;5072960;28;19981;-80
2022/02/02 21:10:32;;;;;;;;;;;18.80;99.90;;;;;;5072511;28;20006;-80
2022/02/02 21:15:44;;;;;;;;;;;18.90;99.90;;;;;;5072439;28;19931;-80
2022/02/02 21:18:19;;;;;;;;;;;18.90;99.90;;;;;;5072363;28;19912;-80
2022/02/02 21:20:54;;;;;;;;;;;19.10;99.90;;;;;;5072217;28;19908;-79
2022/02/02 21:28:34;;;;;;;;;;;19.40;99.90;;;;;;5072315;28;19920;-77
2022/02/02 21:31:01;;;;;;;;;;;19.50;99.90;;;;;;5072313;28;19909;-79
2022/02/02 21:33:28;;;;;;;;;;;19.50;99.90;;;;;;5072083;28;19913;-79
2022/02/02 21:35:56;;;;;;;;;;;19.60;99.90;;;;;;5072055;28;19909;-79
2022/02/02 21:38:41;;;;;;;;;;;19.50;99.90;;;;;;5072340;28;20347;-81
2022/02/02 21:41:15;;;;;;;;;;;19.60;99.90;;;;;;5072044;28;20375;-82
2022/02/02 21:43:42;;;;;;;;;;;19.50;99.90;;;;;;5072397;28;19978;-82
2022/02/02 21:46:08;;;;;;;;;;;19.50;99.90;;;;;;5104255;28;19909;-82
2022/02/02 21:48:35;;;;;;;;;;;19.50;99.90;;;;;;5072284;28;19909;-80
2022/02/02 21:51:07;;;;;;;;;;;19.60;99.90;;;;;;5072495;28;19916;-81
2022/02/02 21:53:34;;;;;;;;;;;19.70;99.90;;;;;;5072411;28;19934;-78
2022/02/02 21:56:00;;;;;;;;;;;19.70;99.90;;;;;;5072303;28;19940;-81
2022/02/02 21:58:27;;;;;;;;;;;19.70;99.90;;;;;;5072052;28;19916;-82
2022/02/02 22:00:54;;;;;;;;;;;19.80;99.90;;;;;;5071903;28;19923;-81
2022/02/02 22:03:20;;;;;;;;;;;20.00;99.90;;;;;;5072054;28;20355;-80
2022/02/02 22:05:47;;;;;;;;;;;20.00;99.90;;;;;;5074034;28;20359;-80
2022/02/02 22:08:14;;;;;;;;;;;19.90;99.90;;;;;;5072144;28;19999;-80
2022/02/02 22:10:40;;;;;;;;;;;19.90;99.90;;;;;;5071880;28;19917;-78
2022/02/02 22:13:08;;;;;;;;;;;19.80;99.90;;;;;;5072002;28;19915;-79
2022/02/02 22:15:49;;;;;;;;;;;19.80;99.90;;;;;;5071939;28;19955;-80
2022/02/02 22:18:17;;;;;;;;;;;19.90;99.90;;;;;;5071398;28;19908;-80
2022/02/02 22:20:44;;;;;;;;;;;20.10;99.90;;;;;;5071793;28;19908;-79
2022/02/02 22:23:11;;;;;;;;;;;20.30;99.90;;;;;;5071812;28;20321;-79
2022/02/02 22:25:38;;;;;;;;;;;20.40;99.90;;;;;;5072030;28;19954;-79
2022/02/02 22:28:04;;;;;;;;;;;20.40;99.90;;;;;;5104385;28;19951;-80
2022/02/02 22:30:31;;;;;;;;;;;20.30;99.90;;;;;;5071799;28;19954;-80
2022/02/02 22:32:58;;;;;;;;;;;20.20;99.90;;;;;;5071652;28;19908;-80
2022/02/02 22:35:24;;;;;;;;;;;20.10;99.90;;;;;;5071705;28;19908;-77
2022/02/02 22:37:51;;;;;;;;;;;20.00;99.90;;;;;;5074360;28;19909;-78
2022/02/02 22:40:25;;;;;;;;;;;20.00;99.90;;;;;;5075155;28;19908;-79
2022/02/02 22:42:52;;;;;;;;;;;20.00;99.90;;;;;;5075189;28;19924;-79
2022/02/02 22:45:18;;;;;;;;;;;20.00;99.90;;;;;;5074781;28;19954;-80
2022/02/02 22:47:47;;;;;;;;;;;20.10;99.90;;;;;;5074771;28;20370;-79
2022/02/02 22:50:14;;;;;;;;;;;20.10;99.90;;;;;;5075105;28;19944;-80
2022/02/02 22:52:46;;;;;;;;;;;20.10;99.90;;;;;;5107629;28;19995;-77
2022/02/02 22:55:15;;;;;;;;;;;20.10;99.90;;;;;;5075041;28;19908;-78
2022/02/02 22:57:42;;;;;;;;;;;20.10;99.90;;;;;;5074866;28;19909;-78
2022/02/02 23:00:12;;;;;;;;;;;20.10;99.90;;;;;;5074280;28;19932;-77
2022/02/02 23:05:20;;;;;;;;;;;20.20;99.90;;;;;;5075148;28;19910;-79
2022/02/02 23:07:47;;;;;;;;;;;20.30;99.90;;;;;;5074779;28;19970;-79
2022/02/02 23:10:14;;;;;;;;;;;20.50;99.90;;;;;;5074628;28;19999;-78
2022/02/02 23:12:40;;;;;;;;;;;20.70;99.90;;;;;;5074728;28;19912;-78
2022/02/02 23:15:11;;;;;;;;;;;20.80;99.90;;;;;;5075027;28;19916;-78
2022/02/02 23:17:38;;;;;;;;;;;20.70;99.90;;;;;;5074625;28;20368;-77
2022/02/02 23:20:05;;;;;;;;;;;20.70;99.90;;;;;;5074378;28;20382;-79
2022/02/02 23:22:33;;;;;;;;;;;20.70;99.90;;;;;;5074491;28;20359;-78
2022/02/02 23:25:07;;;;;;;;;;;20.70;99.90;;;;;;5073177;28;20199;-77
2022/02/02 23:27:36;;;;;;;;;;;20.80;99.90;;;;;;5074581;28;19909;-76
2022/02/02 23:30:03;;;;;;;;;;;20.80;99.90;;;;;;5074286;28;19909;-78
2022/02/02 23:32:30;;;;;;;;;;;20.70;99.90;;;;;;5074191;28;20021;-77
2022/02/02 23:34:56;;;;;;;;;;;20.70;99.90;;;;;;5074080;28;19909;-78
2022/02/02 23:37:23;;;;;;;;;;;20.80;99.90;;;;;;5073675;28;19912;-78
2022/02/02 23:39:50;;;;;;;;;;;20.90;99.90;;;;;;5073814;28;19962;-79
2022/02/02 23:42:21;;;;;;;;;;;21.00;99.90;;;;;;5074045;28;19916;-77
2022/02/02 23:44:48;;;;;;;;;;;21.20;99.90;;;;;;5106680;28;20321;-78
2022/02/02 23:47:17;;;;;;;;;;;21.10;99.90;;;;;;5073503;28;19962;-79
2022/02/02 23:49:52;;;;;;;;;;;21.10;99.90;;;;;;5074204;28;19999;-77
2022/02/02 23:52:29;;;;;;;;;;;21.10;99.90;;;;;;5074089;28;19912;-78
2022/02/02 23:54:57;;;;;;;;;;;21.20;99.90;;;;;;5073786;28;19934;-78
